Time;durP1;ratioP1;P1;durP2;ratioP2;P2;SDS_P1;SDS_P2;PMS_P1;PMS_P2;Temp;Humidity;BMP_temperature;BMP_pressure;BME280_temperature;BME280_humidity;BME280_pressure;Samples;Min_cycle;Max_cycle;Signal;HPM_P1;HPM_P2
2021/06/06 00:00:55;;;;;;;72.57;34.08;;;;;;;;;;5052880;28;20031;-64
2021/06/06 00:03:26;;;;;;;69.53;33.78;;;;;;;;;;5052962;28;20387;-64
2021/06/06 00:06:11;;;;;;;78.03;33.88;;;;;;;;;;5052377;28;20112;-64
2021/06/06 00:08:37;;;;;;;69.38;35.70;;;;;;;;;;5083709;23;20447;-66
2021/06/06 00:11:07;;;;;;;69.43;34.53;;;;;;;;;;5062267;28;20048;-66
2021/06/06 00:13:32;;;;;;;70.47;33.45;;;;;;;;;;5054914;28;20027;-66
2021/06/06 00:15:58;;;;;;;70.25;33.95;;;;;;;;;;5072279;28;20028;-66
2021/06/06 00:18:23;;;;;;;78.00;35.63;;;;;;;;;;5088266;28;20093;-66
2021/06/06 00:20:48;;;;;;;69.43;33.08;;;;;;;;;;5080622;28;20028;-66
2021/06/06 00:23:14;;;;;;;69.87;33.93;;;;;;;;;;5072756;28;20020;-66
2021/06/06 00:25:39;;;;;;;70.50;31.92;;;;;;;;;;5075332;28;20866;-66
2021/06/06 00:28:04;;;;;;;79.97;34.55;;;;;;;;;;5092080;28;20486;-66
2021/06/06 00:30:30;;;;;;;72.68;32.75;;;;;;;;;;5086585;28;20103;-66
2021/06/06 00:32:55;;;;;;;67.07;32.80;;;;;;;;;;5079616;28;20509;-66
2021/06/06 00:35:21;;;;;;;78.55;34.17;;;;;;;;;;5073671;28;20034;-66
2021/06/06 00:37:46;;;;;;;72.05;34.13;;;;;;;;;;5072063;28;20029;-66
2021/06/06 00:40:14;;;;;;;76.15;35.45;;;;;;;;;;5073341;28;20012;-66
2021/06/06 00:42:39;;;;;;;68.93;34.28;;;;;;;;;;5072596;28;20027;-66
2021/06/06 00:45:07;;;;;;;72.47;33.53;;;;;;;;;;5071978;28;20016;-66
2021/06/06 00:47:33;;;;;;;70.97;34.13;;;;;;;;;;5051786;28;20047;-66
2021/06/06 00:49:58;;;;;;;82.83;35.70;;;;;;;;;;5083257;28;20020;-66
2021/06/06 00:52:24;;;;;;;78.05;36.15;;;;;;;;;;5092257;28;20273;-66
2021/06/06 00:54:50;;;;;;;78.90;36.42;;;;;;;;;;5077755;28;20466;-66
2021/06/06 00:57:22;;;;;;;78.82;34.28;;;;;;;;;;5071876;28;20024;-66
2021/06/06 00:59:50;;;;;;;75.47;34.80;;;;;;;;;;5079151;28;20102;-66
2021/06/06 01:02:15;;;;;;;69.38;32.75;;;;;;;;;;5092444;28;20016;-66
2021/06/06 01:04:41;;;;;;;69.70;33.70;;;;;;;;;;5079902;28;20093;-66
2021/06/06 01:07:06;;;;;;;71.47;36.78;;;;;;;;;;5070641;28;20558;-66
2021/06/06 01:09:32;;;;;;;72.28;35.40;;;;;;;;;;5081164;28;20024;-66
2021/06/06 01:12:09;;;;;;;73.68;35.40;;;;;;;;;;5091657;28;20045;-66
2021/06/06 01:14:40;;;;;;;68.13;34.47;;;;;;;;;;5078820;28;20056;-66
2021/06/06 01:17:08;;;;;;;72.75;34.33;;;;;;;;;;5076987;28;20012;-66
2021/06/06 01:19:33;;;;;;;81.97;39.70;;;;;;;;;;5075600;28;20033;-66
2021/06/06 01:21:58;;;;;;;80.88;37.00;;;;;;;;;;5071177;28;20028;-67
2021/06/06 01:24:23;;;;;;;64.75;33.70;;;;;;;;;;5070547;28;20017;-67
2021/06/06 01:26:52;;;;;;;71.07;33.10;;;;;;;;;;5075032;28;20067;-67
2021/06/06 01:29:17;;;;;;;81.45;36.80;;;;;;;;;;5060031;28;20263;-67
2021/06/06 01:31:44;;;;;;;68.15;33.75;;;;;;;;;;5066042;28;20016;-67
2021/06/06 01:34:11;;;;;;;60.58;31.40;;;;;;;;;;5061079;28;20147;-67
2021/06/06 01:36:40;;;;;;;58.88;29.30;;;;;;;;;;5075136;28;20031;-67
2021/06/06 01:39:05;;;;;;;53.33;27.13;;;;;;;;;;5091037;28;20023;-67
2021/06/06 01:41:35;;;;;;;51.65;25.30;;;;;;;;;;5079425;28;20436;-67
2021/06/06 01:44:01;;;;;;;52.33;24.57;;;;;;;;;;5089778;28;20024;-67
2021/06/06 01:46:29;;;;;;;55.53;26.42;;;;;;;;;;5088541;28;20028;-67
2021/06/06 01:48:55;;;;;;;43.17;23.83;;;;;;;;;;5060810;28;20427;-67
2021/06/06 01:51:23;;;;;;;45.58;26.05;;;;;;;;;;5052618;28;20299;-67
2021/06/06 01:53:49;;;;;;;53.80;27.98;;;;;;;;;;5074657;28;20223;-67
2021/06/06 01:56:16;;;;;;;49.50;25.55;;;;;;;;;;5070671;28;20016;-67
2021/06/06 01:58:41;;;;;;;51.67;27.30;;;;;;;;;;5070613;28;20123;-66
2021/06/06 02:01:09;;;;;;;48.95;25.10;;;;;;;;;;5070715;28;20542;-67
2021/06/06 02:03:35;;;;;;;44.47;23.30;;;;;;;;;;5088909;28;20063;-67
2021/06/06 02:06:01;;;;;;;49.58;25.23;;;;;;;;;;5063038;28;20057;-67
2021/06/06 02:08:28;;;;;;;53.47;26.13;;;;;;;;;;5083340;28;20042;-67
2021/06/06 02:10:56;;;;;;;45.67;25.35;;;;;;;;;;5090258;28;20062;-67
2021/06/06 02:13:27;;;;;;;56.88;29.50;;;;;;;;;;5073290;28;20017;-67
2021/06/06 02:15:55;;;;;;;53.95;29.70;;;;;;;;;;5050435;28;20031;-67
2021/06/06 02:18:21;;;;;;;50.40;26.63;;;;;;;;;;5079639;28;20028;-67
2021/06/06 02:20:47;;;;;;;56.63;27.00;;;;;;;;;;5090627;28;20103;-67
2021/06/06 02:23:25;;;;;;;52.45;26.70;;;;;;;;;;5076737;28;20077;-67
2021/06/06 02:25:54;;;;;;;60.47;28.65;;;;;;;;;;5070472;28;20107;-67
2021/06/06 02:28:26;;;;;;;50.35;26.92;;;;;;;;;;5082787;28;20431;-67
2021/06/06 02:30:51;;;;;;;63.88;29.30;;;;;;;;;;5090586;28;20107;-67
2021/06/06 02:33:36;;;;;;;55.07;27.60;;;;;;;;;;5078215;28;20103;-67
2021/06/06 02:36:07;;;;;;;54.78;28.52;;;;;;;;;;5069351;28;20259;-65
2021/06/06 02:38:32;;;;;;;;;;;;;;;;;;5074687;28;20383;-67
2021/06/06 02:41:03;;;;;;;55.53;26.30;;;;;;;;;;5050583;28;20274;-67
2021/06/06 02:43:31;;;;;;;58.58;27.42;;;;;;;;;;5074537;28;20162;-67
2021/06/06 02:45:59;;;;;;;57.25;27.52;;;;;;;;;;5090534;28;20016;-67
2021/06/06 02:48:26;;;;;;;51.70;27.27;;;;;;;;;;5078345;28;20390;-67
2021/06/06 02:50:52;;;;;;;52.55;26.05;;;;;;;;;;5070262;28;20017;-67
2021/06/06 02:53:20;;;;;;;57.80;26.60;;;;;;;;;;5080847;28;20061;-67
2021/06/06 02:55:48;;;;;;;47.55;26.33;;;;;;;;;;5075804;28;20017;-67
2021/06/06 02:58:35;;;;;;;55.13;28.00;;;;;;;;;;5065939;28;20037;-67
2021/06/06 03:01:20;;;;;;;53.88;27.20;;;;;;;;;;5069802;28;20052;-67
2021/06/06 03:03:45;;;;;;;58.92;26.70;;;;;;;;;;5069507;28;20051;-67
2021/06/06 03:06:26;;;;;;;60.35;25.33;;;;;;;;;;5078126;28;20502;-67
2021/06/06 03:08:51;;;;;;;54.55;26.77;;;;;;;;;;5090061;28;20443;-67
2021/06/06 03:11:17;;;;;;;66.38;28.35;;;;;;;;;;5081054;28;20123;-67
2021/06/06 03:13:45;;;;;;;60.10;27.10;;;;;;;;;;5068465;28;20032;-67
2021/06/06 03:16:12;;;;;;;57.63;30.67;;;;;;;;;;5076517;28;20020;-67
2021/06/06 03:18:40;;;;;;;54.83;26.58;;;;;;;;;;5089740;28;20077;-67
2021/06/06 03:21:10;;;;;;;60.03;27.27;;;;;;;;;;5079278;28;20016;-67
2021/06/06 03:23:36;;;;;;;49.55;26.77;;;;;;;;;;5070206;28;20418;-67
2021/06/06 03:26:03;;;;;;;54.38;27.45;;;;;;;;;;5078951;28;20028;-67
2021/06/06 03:28:30;;;;;;;63.85;28.92;;;;;;;;;;5087502;28;20514;-67
2021/06/06 03:31:00;;;;;;;57.10;28.08;;;;;;;;;;5059068;28;20023;-67
2021/06/06 03:33:45;;;;;;;60.70;26.95;;;;;;;;;;5069530;28;20062;-67
2021/06/06 03:36:11;;;;;;;52.22;26.90;;;;;;;;;;5051987;28;20028;-67
2021/06/06 03:38:36;;;;;;;58.85;26.63;;;;;;;;;;5068875;28;20394;-67
2021/06/06 03:41:02;;;;;;;47.33;26.30;;;;;;;;;;5076707;28;20016;-67
2021/06/06 03:43:27;;;;;;;53.75;25.73;;;;;;;;;;5089795;28;20024;-66
2021/06/06 03:45:52;;;;;;;62.10;27.58;;;;;;;;;;5082617;28;20092;-67
2021/06/06 03:48:18;;;;;;;57.70;27.10;;;;;;;;;;5072666;28;20441;-67
2021/06/06 03:50:45;;;;;;;58.45;26.20;;;;;;;;;;5076313;28;20023;-67
2021/06/06 03:53:10;;;;;;;60.22;27.65;;;;;;;;;;5093424;28;20469;-67
2021/06/06 03:55:36;;;;;;;50.88;26.60;;;;;;;;;;5091385;28;20024;-66
2021/06/06 03:58:01;;;;;;;54.42;28.40;;;;;;;;;;5072924;28;20028;-67
2021/06/06 04:00:32;;;;;;;59.03;26.52;;;;;;;;;;5073083;28;20046;-67
2021/06/06 04:02:59;;;;;;;55.88;28.13;;;;;;;;;;5059537;28;20040;-67
2021/06/06 04:05:25;;;;;;;52.92;26.75;;;;;;;;;;5076335;28;20495;-67
2021/06/06 04:07:50;;;;;;;58.72;30.02;;;;;;;;;;5091937;28;20036;-67
2021/06/06 04:10:15;;;;;;;61.27;30.03;;;;;;;;;;5058982;28;20021;-67
2021/06/06 04:12:40;;;;;;;56.83;28.30;;;;;;;;;;5092767;28;20255;-67
2021/06/06 04:15:06;;;;;;;58.35;28.15;;;;;;;;;;5093055;28;20012;-67
2021/06/06 04:17:31;;;;;;;56.50;29.60;;;;;;;;;;5072453;28;20035;-67
2021/06/06 04:19:56;;;;;;;55.25;29.77;;;;;;;;;;5074525;28;20085;-67
2021/06/06 04:22:22;;;;;;;63.95;30.27;;;;;;;;;;5073372;28;20371;-67
2021/06/06 04:24:47;;;;;;;52.60;28.67;;;;;;;;;;5059709;28;20027;-67
2021/06/06 04:27:12;;;;;;;52.97;28.10;;;;;;;;;;5092447;28;20027;-67
2021/06/06 04:29:37;;;;;;;62.15;31.35;;;;;;;;;;5084637;28;20254;-67
2021/06/06 04:32:04;;;;;;;63.97;29.07;;;;;;;;;;5092687;28;20023;-67
2021/06/06 04:34:30;;;;;;;61.33;29.77;;;;;;;;;;5090714;28;20282;-66
2021/06/06 04:36:55;;;;;;;57.97;30.25;;;;;;;;;;5070417;28;20060;-67
2021/06/06 04:39:20;;;;;;;59.88;32.38;;;;;;;;;;5072463;28;20031;-67
2021/06/06 04:41:45;;;;;;;63.37;30.80;;;;;;;;;;5071751;28;20109;-67
2021/06/06 04:44:11;;;;;;;59.78;31.55;;;;;;;;;;5072460;28;20755;-67
2021/06/06 04:46:36;;;;;;;56.90;28.63;;;;;;;;;;5089340;28;20016;-67
2021/06/06 04:49:01;;;;;;;57.83;31.17;;;;;;;;;;5092454;28;20031;-67
2021/06/06 04:51:26;;;;;;;63.25;30.50;;;;;;;;;;5076530;28;20107;-67
2021/06/06 04:53:52;;;;;;;65.95;30.90;;;;;;;;;;5071622;28;20021;-67
2021/06/06 04:56:18;;;;;;;62.28;31.30;;;;;;;;;;5082175;28;20029;-67
2021/06/06 04:58:44;;;;;;;74.78;33.45;;;;;;;;;;5071502;28;20039;-67
2021/06/06 05:01:10;;;;;;;65.30;31.15;;;;;;;;;;5083591;28;20474;-67
2021/06/06 05:03:35;;;;;;;65.88;30.95;;;;;;;;;;5091822;28;20111;-67
2021/06/06 05:06:00;;;;;;;71.50;32.35;;;;;;;;;;5081755;28;20050;-67
2021/06/06 05:08:25;;;;;;;60.67;30.83;;;;;;;;;;5071097;28;20032;-67
2021/06/06 05:10:51;;;;;;;61.13;30.60;;;;;;;;;;5063789;28;20053;-67
2021/06/06 05:13:17;;;;;;;64.68;31.10;;;;;;;;;;5051908;28;20395;-67
2021/06/06 05:15:42;;;;;;;60.40;29.95;;;;;;;;;;5063918;28;20008;-67
2021/06/06 05:18:08;;;;;;;56.58;29.70;;;;;;;;;;5081269;28;20480;-67
2021/06/06 05:20:35;;;;;;;58.00;30.40;;;;;;;;;;5075688;28;20066;-67
2021/06/06 05:23:01;;;;;;;64.25;30.75;;;;;;;;;;5091760;28;20027;-67
2021/06/06 05:25:26;;;;;;;61.05;30.77;;;;;;;;;;5075884;28;20100;-67
2021/06/06 05:27:51;;;;;;;65.97;32.17;;;;;;;;;;5071450;28;20027;-67
2021/06/06 05:30:21;;;;;;;58.50;30.60;;;;;;;;;;5078157;28;20435;-65
2021/06/06 05:32:46;;;;;;;63.65;31.80;;;;;;;;;;5091190;28;20019;-66
2021/06/06 05:35:12;;;;;;;67.30;34.38;;;;;;;;;;5084145;28;20104;-65
2021/06/06 05:37:37;;;;;;;63.42;33.85;;;;;;;;;;5070724;28;20360;-66
2021/06/06 05:40:03;;;;;;;80.30;33.90;;;;;;;;;;5070357;28;20103;-65
2021/06/06 05:42:28;;;;;;;73.65;35.70;;;;;;;;;;5059264;28;20748;-65
2021/06/06 05:44:53;;;;;;;78.53;35.77;;;;;;;;;;5073710;28;20024;-66
2021/06/06 05:47:19;;;;;;;75.53;36.00;;;;;;;;;;5042303;28;20328;-65
2021/06/06 05:49:44;;;;;;;94.67;40.23;;;;;;;;;;5070990;28;20724;-65
2021/06/06 05:52:09;;;;;;;76.10;36.17;;;;;;;;;;5078616;28;20257;-66
2021/06/06 05:54:34;;;;;;;85.68;38.25;;;;;;;;;;5074131;28;20715;-65
2021/06/06 05:56:59;;;;;;;93.10;40.17;;;;;;;;;;5055776;28;20022;-68
2021/06/06 05:59:25;;;;;;;90.03;38.65;;;;;;;;;;5079288;28;20265;-65
2021/06/06 06:01:50;;;;;;;91.75;40.88;;;;;;;;;;5071673;28;20024;-66
2021/06/06 06:04:15;;;;;;;101.23;41.13;;;;;;;;;;5073067;28;20533;-65
2021/06/06 06:06:40;;;;;;;97.87;40.80;;;;;;;;;;5073421;28;20377;-69
2021/06/06 06:09:06;;;;;;;97.45;42.97;;;;;;;;;;5047110;23;20457;-90
2021/06/06 06:11:31;;;;;;;99.60;41.42;;;;;;;;;;5011736;28;20029;-91
2021/06/06 06:13:57;;;;;;;107.05;43.15;;;;;;;;;;5010739;28;20068;-90
2021/06/06 06:16:25;;;;;;;95.35;40.45;;;;;;;;;;5028147;28;20079;-89
2021/06/06 06:18:51;;;;;;;99.43;43.22;;;;;;;;;;5034108;28;21336;-90
2021/06/06 06:21:16;;;;;;;109.32;44.00;;;;;;;;;;5027628;28;20108;-90
2021/06/06 06:23:43;;;;;;;108.03;44.25;;;;;;;;;;5044352;28;20436;-90
2021/06/06 06:26:08;;;;;;;98.40;42.17;;;;;;;;;;5035924;28;20033;-91
2021/06/06 06:28:33;;;;;;;92.82;40.15;;;;;;;;;;5032944;28;20033;-89
2021/06/06 06:31:00;;;;;;;105.28;44.00;;;;;;;;;;5049550;28;20023;-91
2021/06/06 06:33:25;;;;;;;106.55;41.65;;;;;;;;;;5033163;28;20028;-90
2021/06/06 06:35:53;;;;;;;103.70;44.08;;;;;;;;;;5035398;28;20037;-94
2021/06/06 06:38:19;;;;;;;87.38;38.28;;;;;;;;;;5053830;28;20056;-90
2021/06/06 06:40:44;;;;;;;84.78;37.95;;;;;;;;;;5051954;28;20047;-89
2021/06/06 06:43:10;;;;;;;83.50;37.80;;;;;;;;;;5035134;28;20032;-90
2021/06/06 06:45:37;;;;;;;84.68;37.88;;;;;;;;;;5036069;28;20116;-91
2021/06/06 06:48:04;;;;;;;86.72;37.97;;;;;;;;;;5035145;28;20017;-91
2021/06/06 06:50:29;;;;;;;88.60;39.03;;;;;;;;;;5056422;28;20013;-91
2021/06/06 06:52:56;;;;;;;95.28;41.63;;;;;;;;;;5038640;28;20062;-91
2021/06/06 06:55:22;;;;;;;95.32;39.33;;;;;;;;;;5036342;28;20017;-93
2021/06/06 06:57:47;;;;;;;93.05;38.53;;;;;;;;;;5036027;28;20040;-90
2021/06/06 07:00:15;;;;;;;95.53;40.63;;;;;;;;;;5054047;28;20032;-90
2021/06/06 07:02:40;;;;;;;99.32;40.30;;;;;;;;;;5034584;28;20121;-92
2021/06/06 07:05:05;;;;;;;97.18;40.10;;;;;;;;;;5034828;28;20028;-91
2021/06/06 07:07:31;;;;;;;106.70;41.03;;;;;;;;;;5052586;28;20087;-91
2021/06/06 07:09:56;;;;;;;99.80;39.67;;;;;;;;;;5032280;28;20037;-91
2021/06/06 07:12:22;;;;;;;107.50;42.42;;;;;;;;;;5035053;28;20029;-91
2021/06/06 07:14:47;;;;;;;106.13;41.75;;;;;;;;;;5042069;28;20009;-91
2021/06/06 07:17:12;;;;;;;111.75;44.15;;;;;;;;;;5056528;28;20013;-91
2021/06/06 07:19:37;;;;;;;120.78;44.28;;;;;;;;;;5074273;28;20002;-93
2021/06/06 07:22:03;;;;;;;132.03;47.17;;;;;;;;;;5047481;28;20088;-91
2021/06/06 07:24:28;;;;;;;120.88;45.13;;;;;;;;;;5039287;28;20780;-89
2021/06/06 07:26:53;;;;;;;120.40;45.57;;;;;;;;;;5038546;28;20107;-91
2021/06/06 07:29:25;;;;;;;128.00;46.60;;;;;;;;;;5039773;28;20260;-90
2021/06/06 07:31:54;;;;;;;120.93;46.30;;;;;;;;;;5040591;28;20111;-90
2021/06/06 07:34:19;;;;;;;116.60;46.33;;;;;;;;;;5040417;28;20080;-90
2021/06/06 07:36:45;;;;;;;127.85;45.40;;;;;;;;;;5037987;28;20071;-90
2021/06/06 07:39:11;;;;;;;146.88;47.97;;;;;;;;;;5039752;28;20083;-90
2021/06/06 07:41:37;;;;;;;138.50;46.70;;;;;;;;;;5040546;28;20037;-90
2021/06/06 07:44:02;;;;;;;128.80;48.90;;;;;;;;;;5048623;28;20111;-90
2021/06/06 07:46:28;;;;;;;125.30;47.40;;;;;;;;;;5058028;28;20020;-91
2021/06/06 07:48:53;;;;;;;147.20;51.53;;;;;;;;;;5043116;28;20021;-90
2021/06/06 07:51:21;;;;;;;138.00;49.00;;;;;;;;;;5056537;28;20040;-91
2021/06/06 07:53:46;;;;;;;133.65;47.60;;;;;;;;;;5038053;28;20021;-90
2021/06/06 07:56:14;;;;;;;126.30;48.88;;;;;;;;;;5037036;28;20024;-91
2021/06/06 07:58:40;;;;;;;139.82;50.45;;;;;;;;;;5037379;28;20569;-92
2021/06/06 08:01:06;;;;;;;144.57;49.88;;;;;;;;;;5036339;28;20052;-90
2021/06/06 08:03:31;;;;;;;140.55;51.80;;;;;;;;;;5036242;28;20021;-91
2021/06/06 08:05:58;;;;;;;130.30;49.70;;;;;;;;;;5038483;28;20088;-90
2021/06/06 08:08:23;;;;;;;128.90;51.05;;;;;;;;;;5040417;28;20021;-91
2021/06/06 08:10:53;;;;;;;145.20;52.80;;;;;;;;;;5037014;28;20013;-91
2021/06/06 08:13:18;;;;;;;136.45;51.72;;;;;;;;;;5038989;28;20024;-91
2021/06/06 08:15:44;;;;;;;130.40;50.65;;;;;;;;;;5038509;28;20025;-90
2021/06/06 08:18:11;;;;;;;139.32;54.63;;;;;;;;;;5036818;28;20485;-91
2021/06/06 08:20:43;;;;;;;124.75;49.28;;;;;;;;;;5041743;28;20017;-91
2021/06/06 08:23:09;;;;;;;120.35;48.25;;;;;;;;;;5052328;28;20032;-91
2021/06/06 08:25:35;;;;;;;123.03;48.85;;;;;;;;;;5049360;28;20025;-90
2021/06/06 08:28:01;;;;;;;115.10;47.30;;;;;;;;;;5055595;28;20025;-91
2021/06/06 08:30:29;;;;;;;128.07;50.83;;;;;;;;;;5039979;28;20505;-91
2021/06/06 08:32:54;;;;;;;131.95;50.30;;;;;;;;;;5041293;28;20394;-91
2021/06/06 08:35:20;;;;;;;144.52;51.58;;;;;;;;;;5038898;28;20308;-91
2021/06/06 08:37:45;;;;;;;150.10;54.88;;;;;;;;;;5058232;28;20032;-91
2021/06/06 08:40:11;;;;;;;139.80;53.60;;;;;;;;;;5041980;28;20032;-90
2021/06/06 08:42:41;;;;;;;140.50;53.55;;;;;;;;;;5043180;28;20433;-91
2021/06/06 08:45:13;;;;;;;136.63;53.90;;;;;;;;;;5059646;28;20059;-91
2021/06/06 08:47:39;;;;;;;148.77;54.92;;;;;;;;;;5054757;28;20032;-92
2021/06/06 08:50:06;;;;;;;146.65;55.28;;;;;;;;;;5066477;28;20017;-91
2021/06/06 08:52:36;;;;;;;154.70;55.22;;;;;;;;;;5046580;28;20097;-92
2021/06/06 08:55:20;;;;;;;121.95;52.38;;;;;;;;;;5056214;28;20028;-91
2021/06/06 08:57:50;;;;;;;116.57;48.42;;;;;;;;;;5048310;28;20025;-91
2021/06/06 09:00:30;;;;;;;104.03;44.40;;;;;;;;;;5043182;28;20032;-91
2021/06/06 09:02:59;;;;;;;103.13;45.15;;;;;;;;;;5040674;28;20036;-90
2021/06/06 09:05:27;;;;;;;104.82;44.58;;;;;;;;;;5045236;28;20025;-91
2021/06/06 09:07:54;;;;;;;117.55;49.60;;;;;;;;;;5042964;28;20071;-91
2021/06/06 09:10:37;;;;;;;114.13;46.80;;;;;;;;;;5061298;28;20021;-92
2021/06/06 09:13:46;;;;;;;113.78;47.15;;;;;;;;;;5061505;28;20028;-91
2021/06/06 09:15:55;;;;;;;106.57;45.72;;;;;;;;;;5055571;28;20094;-91
2021/06/06 09:18:25;;;;;;;115.25;45.72;;;;;;;;;;5047334;28;20043;-91
2021/06/06 09:20:51;;;;;;;114.93;46.20;;;;;;;;;;5063708;28;20017;-91
2021/06/06 09:23:19;;;;;;;120.00;45.97;;;;;;;;;;5036215;28;20047;-90
2021/06/06 09:25:45;;;;;;;111.68;46.25;;;;;;;;;;5063916;28;20017;-91
2021/06/06 09:28:13;;;;;;;111.95;42.65;;;;;;;;;;5041878;28;20025;-90
2021/06/06 09:30:42;;;;;;;118.30;45.78;;;;;;;;;;5042947;28;20052;-92
2021/06/06 09:33:10;;;;;;;122.22;45.38;;;;;;;;;;5043154;28;20036;-91
2021/06/06 09:35:37;;;;;;;128.15;46.15;;;;;;;;;;5039969;28;20017;-91
2021/06/06 09:38:06;;;;;;;117.78;50.17;;;;;;;;;;5040108;28;20439;-91
2021/06/06 09:40:31;;;;;;;120.30;47.47;;;;;;;;;;5028279;28;20065;-90
2021/06/06 09:42:59;;;;;;;107.75;43.85;;;;;;;;;;5025722;28;20021;-90
2021/06/06 09:45:29;;;;;;;132.82;46.42;;;;;;;;;;5040234;28;20075;-90
2021/06/06 09:47:55;;;;;;;115.32;43.08;;;;;;;;;;5045948;28;20032;-91
2021/06/06 09:50:21;;;;;;;133.18;47.05;;;;;;;;;;5044621;28;20371;-91
2021/06/06 09:52:47;;;;;;;127.63;46.38;;;;;;;;;;5046240;28;20025;-92
2021/06/06 09:55:21;;;;;;;108.90;43.08;;;;;;;;;;5057800;28;20051;-90
2021/06/06 09:57:47;;;;;;;111.78;43.50;;;;;;;;;;5022196;28;20033;-90
2021/06/06 10:00:24;;;;;;;121.75;45.78;;;;;;;;;;5038448;28;20028;-91
2021/06/06 10:02:51;;;;;;;112.20;45.50;;;;;;;;;;5043759;28;20032;-90
2021/06/06 10:05:24;;;;;;;118.47;45.90;;;;;;;;;;5044106;28;20017;-91
2021/06/06 10:07:55;;;;;;;117.05;47.33;;;;;;;;;;5061363;28;20055;-91
2021/06/06 10:10:27;;;;;;;113.68;48.00;;;;;;;;;;5063614;28;20036;-91
2021/06/06 10:12:53;;;;;;;118.18;48.38;;;;;;;;;;5055187;28;20021;-90
2021/06/06 10:15:27;;;;;;;131.48;51.78;;;;;;;;;;5055286;28;20062;-91
2021/06/06 10:18:15;;;;;;;136.98;54.05;;;;;;;;;;5044429;28;20021;-91
2021/06/06 10:20:42;;;;;;;129.65;52.17;;;;;;;;;;5049606;28;20057;-91
2021/06/06 10:23:30;;;;;;;133.43;52.80;;;;;;;;;;5050731;28;20013;-90
2021/06/06 10:25:57;;;;;;;126.93;51.53;;;;;;;;;;5066009;28;20089;-90
2021/06/06 10:28:30;;;;;;;131.18;50.67;;;;;;;;;;5059103;28;20490;-90
2021/06/06 10:31:14;;;;;;;117.43;50.40;;;;;;;;;;5041485;28;20028;-92
2021/06/06 10:33:42;;;;;;;122.82;50.50;;;;;;;;;;5021478;28;20025;-90
2021/06/06 10:36:08;;;;;;;119.88;47.72;;;;;;;;;;5038427;28;20021;-90
2021/06/06 10:38:37;;;;;;;117.38;48.22;;;;;;;;;;5018828;28;20030;-91
2021/06/06 10:41:11;;;;;;;117.00;48.88;;;;;;;;;;5051190;28;20393;-90
2021/06/06 10:43:42;;;;;;;119.30;48.08;;;;;;;;;;5043331;28;20025;-90
2021/06/06 10:46:17;;;;;;;118.70;48.72;;;;;;;;;;5059126;28;20020;-90
2021/06/06 10:49:08;;;;;;;115.30;48.47;;;;;;;;;;5043735;28;20080;-90
2021/06/06 10:51:41;;;;;;;111.72;47.55;;;;;;;;;;5058180;28;20025;-89
2021/06/06 10:54:21;;;;;;;113.80;46.15;;;;;;;;;;5059502;28;20052;-89
2021/06/06 10:56:46;;;;;;;;;;;;;;;;;;5062354;28;20024;-90
2021/06/06 10:59:12;;;;;;;123.15;52.03;;;;;;;;;;5045722;28;19962;-90
2021/06/06 11:01:53;;;;;;;;;;;;;;;;;;;;;
2021/06/06 11:04:34;;;;;;;125.88;53.15;;;;;;;;;;5046817;28;20561;-91
2021/06/06 11:07:01;;;;;;;114.18;49.80;;;;;;;;;;5047560;28;20027;-91
2021/06/06 11:09:35;;;;;;;110.97;47.80;;;;;;;;;;5051457;28;20028;-90
2021/06/06 11:12:10;;;;;;;110.22;46.83;;;;;;;;;;5059897;28;20091;-90
2021/06/06 11:14:49;;;;;;;114.93;47.50;;;;;;;;;;5043730;28;20021;-90
2021/06/06 11:17:35;;;;;;;118.05;47.95;;;;;;;;;;5039832;28;20021;-90
2021/06/06 11:20:33;;;;;;;100.90;45.08;;;;;;;;;;5047063;28;20029;-90
2021/06/06 11:23:18;;;;;;;100.25;46.17;;;;;;;;;;5020092;28;20032;-90
2021/06/06 11:25:49;;;;;;;103.03;46.90;;;;;;;;;;5059444;28;20041;-91
2021/06/06 11:28:17;;;;;;;;;;;;;;;;;;5060068;28;20024;-91
2021/06/06 11:30:42;;;;;;;100.70;45.40;;;;;;;;;;5039819;28;19928;-90
2021/06/06 11:33:10;;;;;;;99.00;44.05;;;;;;;;;;5069214;28;20025;-91
2021/06/06 11:35:36;;;;;;;100.45;46.63;;;;;;;;;;5048424;28;20024;-90
2021/06/06 11:38:25;;;;;;;100.07;44.65;;;;;;;;;;5048555;28;20024;-91
2021/06/06 11:41:03;;;;;;;94.57;43.38;;;;;;;;;;5044804;28;20032;-90
2021/06/06 11:43:39;;;;;;;94.10;44.72;;;;;;;;;;5060518;28;20148;-91
2021/06/06 11:46:14;;;;;;;93.55;44.30;;;;;;;;;;5043688;28;20079;-90
2021/06/06 11:48:46;;;;;;;95.13;45.22;;;;;;;;;;5045012;28;20485;-90
2021/06/06 11:51:16;;;;;;;103.07;44.42;;;;;;;;;;5052809;28;20037;-91
2021/06/06 11:53:44;;;;;;;100.35;43.80;;;;;;;;;;5043067;28;20024;-91
2021/06/06 11:56:15;;;;;;;99.82;47.05;;;;;;;;;;5021107;23;20053;-67
2021/06/06 11:58:47;;;;;;;88.15;41.85;;;;;;;;;;5007113;28;20037;-66
2021/06/06 12:01:16;;;;;;;89.97;44.53;;;;;;;;;;5007844;28;20091;-66
2021/06/06 12:03:43;;;;;;;102.80;46.55;;;;;;;;;;5007801;28;20030;-68
2021/06/06 12:06:19;;;;;;;117.68;50.58;;;;;;;;;;5010539;28;20037;-67
2021/06/06 12:08:46;;;;;;;111.40;48.83;;;;;;;;;;4992396;28;20081;-68
2021/06/06 12:11:28;;;;;;;109.90;51.13;;;;;;;;;;4993347;28;20019;-67
2021/06/06 12:14:06;;;;;;;112.82;52.78;;;;;;;;;;4995765;28;20112;-67
2021/06/06 12:16:32;;;;;;;108.32;50.30;;;;;;;;;;5007739;28;20471;-65
2021/06/06 12:19:05;;;;;;;111.35;48.17;;;;;;;;;;5007116;28;20029;-66
2021/06/06 12:21:32;;;;;;;95.00;45.95;;;;;;;;;;5007764;28;20101;-66
2021/06/06 12:24:13;;;;;;;111.78;49.20;;;;;;;;;;5006633;28;20110;-68
2021/06/06 12:26:42;;;;;;;101.85;44.88;;;;;;;;;;5006728;28;20046;-66
2021/06/06 12:29:08;;;;;;;108.05;51.45;;;;;;;;;;5006979;28;20105;-66
2021/06/06 12:31:36;;;;;;;109.85;49.88;;;;;;;;;;5006465;28;20120;-65
2021/06/06 12:34:20;;;;;;;107.10;49.85;;;;;;;;;;5006855;28;20022;-66
2021/06/06 12:36:45;;;;;;;111.65;48.38;;;;;;;;;;5006826;28;20030;-66
2021/06/06 12:39:14;;;;;;;99.95;46.78;;;;;;;;;;5006395;28;20053;-68
2021/06/06 12:41:41;;;;;;;96.93;45.95;;;;;;;;;;5006941;28;20017;-67
2021/06/06 12:44:07;;;;;;;99.05;46.55;;;;;;;;;;5006502;28;20032;-68
2021/06/06 12:46:42;;;;;;;89.55;43.17;;;;;;;;;;5006936;28;20057;-66
2021/06/06 12:49:07;;;;;;;98.78;44.75;;;;;;;;;;5005757;28;20030;-66
2021/06/06 12:51:35;;;;;;;102.07;47.10;;;;;;;;;;5006963;28;20014;-66
2021/06/06 12:54:12;;;;;;;97.43;47.00;;;;;;;;;;5006626;28;20033;-66
2021/06/06 12:56:38;;;;;;;94.50;45.20;;;;;;;;;;5005814;28;20041;-68
2021/06/06 12:59:21;;;;;;;96.82;46.78;;;;;;;;;;5006405;28;20022;-67
2021/06/06 13:01:47;;;;;;;87.57;42.38;;;;;;;;;;5007608;28;20017;-67
2021/06/06 13:04:12;;;;;;;92.15;38.58;;;;;;;;;;5006908;28;20014;-68
2021/06/06 13:06:39;;;;;;;81.90;40.05;;;;;;;;;;4990031;28;20025;-66
2021/06/06 13:09:07;;;;;;;72.85;36.05;;;;;;;;;;4989014;28;20022;-67
2021/06/06 13:11:37;;;;;;;71.65;35.28;;;;;;;;;;5006287;28;20076;-67
2021/06/06 13:14:14;;;;;;;73.32;31.60;;;;;;;;;;5006363;28;20021;-66
2021/06/06 13:16:42;;;;;;;64.35;31.70;;;;;;;;;;5006451;28;20097;-67
2021/06/06 13:19:09;;;;;;;59.33;29.63;;;;;;;;;;5004941;28;20081;-66
2021/06/06 13:21:36;;;;;;;53.50;28.63;;;;;;;;;;5005587;28;20105;-67
2021/06/06 13:24:05;;;;;;;60.85;29.70;;;;;;;;;;5004007;28;20018;-66
2021/06/06 13:26:34;;;;;;;65.00;34.15;;;;;;;;;;5003612;28;20554;-67
2021/06/06 13:29:01;;;;;;;61.67;30.73;;;;;;;;;;5004396;28;20034;-67
2021/06/06 13:31:27;;;;;;;62.50;30.30;;;;;;;;;;5003576;28;20087;-67
2021/06/06 13:33:52;;;;;;;80.70;37.55;;;;;;;;;;5003515;28;20117;-67
2021/06/06 13:36:17;;;;;;;77.55;40.53;;;;;;;;;;5004317;28;20030;-67
2021/06/06 13:38:42;;;;;;;81.03;43.47;;;;;;;;;;5004093;28;20076;-67
2021/06/06 13:41:08;;;;;;;78.50;39.78;;;;;;;;;;5003471;28;20045;-67
2021/06/06 13:43:35;;;;;;;77.60;41.58;;;;;;;;;;5003926;28;20766;-67
2021/06/06 13:46:00;;;;;;;78.70;39.67;;;;;;;;;;5003360;28;20029;-67
2021/06/06 13:48:27;;;;;;;83.70;40.90;;;;;;;;;;5003640;28;20398;-68
2021/06/06 13:50:52;;;;;;;73.47;41.42;;;;;;;;;;5003641;28;20018;-67
2021/06/06 13:53:20;;;;;;;74.90;38.72;;;;;;;;;;5007059;28;20029;-68
2021/06/06 13:55:45;;;;;;;76.25;40.85;;;;;;;;;;5003976;28;20038;-67
2021/06/06 13:58:11;;;;;;;80.78;41.90;;;;;;;;;;5004016;28;20153;-67
2021/06/06 14:00:37;;;;;;;67.90;38.38;;;;;;;;;;5003645;28;20830;-67
2021/06/06 14:03:05;;;;;;;73.68;38.53;;;;;;;;;;5004087;28;20458;-67
2021/06/06 14:05:30;;;;;;;77.93;39.60;;;;;;;;;;5003699;28;20453;-67
2021/06/06 14:07:56;;;;;;;71.60;36.55;;;;;;;;;;5006477;28;20551;-67
2021/06/06 14:10:24;;;;;;;81.72;40.58;;;;;;;;;;5010515;28;20076;-67
2021/06/06 14:12:50;;;;;;;71.15;38.53;;;;;;;;;;5004342;28;20539;-67
2021/06/06 14:15:17;;;;;;;67.90;35.50;;;;;;;;;;5003270;28;20024;-67
2021/06/06 14:17:43;;;;;;;60.63;34.42;;;;;;;;;;5002252;28;20411;-67
2021/06/06 14:20:09;;;;;;;62.88;33.95;;;;;;;;;;5004050;28;20029;-67